Time;durP1;ratioP1;P1;durP2;ratioP2;P2;SDS_P1;SDS_P2;PMS_P1;PMS_P2;Temp;Humidity;BMP_temperature;BMP_pressure;BME280_temperature;BME280_humidity;BME280_pressure;Samples;Min_cycle;Max_cycle;Signal;HPM_P1;HPM_P2
2023/08/27 00:00:10;;;;;;;4.87;4.63;;;;;;;15.35;84.93;100732.38;5034394;28;20188;-67
2023/08/27 00:02:40;;;;;;;4.90;4.80;;;;;;;15.37;84.95;100727.63;5033572;28;20172;-67
2023/08/27 00:05:07;;;;;;;5.40;5.03;;;;;;;15.35;85.28;100720.78;5033743;28;20194;-67
2023/08/27 00:07:35;;;;;;;4.90;4.83;;;;;;;15.32;85.50;100716.56;5033534;28;20218;-68
2023/08/27 00:10:03;;;;;;;7.87;5.57;;;;;;;15.34;85.52;100706.47;5032374;28;20659;-67
2023/08/27 00:12:30;;;;;;;4.77;4.67;;;;;;;15.38;85.34;100705.06;5033323;28;20192;-67
2023/08/27 00:14:56;;;;;;;5.53;5.33;;;;;;;15.40;85.68;100704.91;5033667;28;20616;-67
2023/08/27 00:17:23;;;;;;;5.10;5.00;;;;;;;15.45;85.54;100697.06;5032673;28;20180;-68
2023/08/27 00:19:49;;;;;;;5.03;4.93;;;;;;;15.50;85.70;100689.31;5033273;28;20655;-67
2023/08/27 00:22:16;;;;;;;5.13;5.07;;;;;;;15.53;85.55;100705.94;5033721;28;20187;-67
2023/08/27 00:24:42;;;;;;;4.97;4.87;;;;;;;15.56;85.45;100715.53;5033202;28;20196;-67
2023/08/27 00:27:09;;;;;;;5.10;4.90;;;;;;;15.56;85.91;100704.75;5033076;28;20730;-67
2023/08/27 00:29:35;;;;;;;5.10;4.90;;;;;;;15.57;86.05;100692.13;5033152;28;20262;-67
2023/08/27 00:32:02;;;;;;;10.90;5.30;;;;;;;15.54;85.67;100691.47;5033378;28;20187;-67
2023/08/27 00:34:45;;;;;;;10.93;6.83;;;;;;;15.54;85.53;100701.41;5031864;28;20206;-67
2023/08/27 00:37:11;;;;;;;5.00;4.90;;;;;;;15.57;84.96;100692.13;5032042;28;20200;-67
2023/08/27 00:39:38;;;;;;;5.67;5.47;;;;;;;15.50;85.53;100668.59;5032329;28;20631;-67
2023/08/27 00:42:05;;;;;;;5.87;5.63;;;;;;;15.49;85.32;100653.41;5031833;28;20548;-67
2023/08/27 00:44:31;;;;;;;6.33;6.10;;;;;;;15.44;85.65;100645.06;5033044;28;20196;-67
2023/08/27 00:46:59;;;;;;;6.23;6.00;;;;;;;15.43;85.41;100639.88;5031705;28;20249;-67
2023/08/27 00:49:26;;;;;;;6.77;6.37;;;;;;;15.43;85.83;100634.47;5032872;28;20235;-67
2023/08/27 00:51:52;;;;;;;6.50;6.10;;;;;;;15.42;85.81;100636.34;5032953;28;20215;-67
2023/08/27 00:54:19;;;;;;;6.03;5.93;;;;;;;15.42;85.81;100632.78;5032935;28;20199;-67
2023/08/27 00:56:46;;;;;;;6.30;5.97;;;;;;;15.41;85.70;100621.19;5032399;28;20718;-67
2023/08/27 00:59:14;;;;;;;8.73;6.83;;;;;;;15.40;85.78;100613.31;5033148;28;20692;-67
2023/08/27 01:01:40;;;;;;;6.13;5.83;;;;;;;15.36;85.78;100601.22;5031701;28;20187;-67
2023/08/27 01:04:07;;;;;;;6.63;6.37;;;;;;;15.33;85.51;100594.34;5032915;28;20594;-67
2023/08/27 01:06:34;;;;;;;6.33;6.13;;;;;;;15.28;86.02;100601.28;5031616;28;20192;-67
2023/08/27 01:09:20;;;;;;;5.67;5.23;;;;;;;15.27;85.86;100603.19;5033023;28;20216;-67
2023/08/27 01:11:57;;;;;;;5.37;5.27;;;;;;;15.29;85.92;100608.34;5033126;28;20180;-67
2023/08/27 01:14:27;;;;;;;6.70;6.30;;;;;;;15.29;85.90;100592.19;5031414;28;20200;-67
2023/08/27 01:16:58;;;;;;;6.13;5.93;;;;;;;15.29;85.98;100594.88;5031793;28;20630;-67
2023/08/27 01:19:25;;;;;;;5.47;5.30;;;;;;;15.28;85.70;100606.69;5031496;28;20220;-67
2023/08/27 01:21:51;;;;;;;6.10;6.00;;;;;;;15.23;85.91;100604.56;5031469;28;20204;-67
2023/08/27 01:24:18;;;;;;;6.53;6.33;;;;;;;15.22;85.96;100604.75;5032968;28;20196;-67
2023/08/27 01:26:56;;;;;;;5.47;5.27;;;;;;;15.21;85.71;100601.22;5031436;28;20204;-67
2023/08/27 01:29:33;;;;;;;6.03;5.83;;;;;;;15.18;85.76;100624.97;5033440;28;20698;-67
2023/08/27 01:32:38;;;;;;;5.63;5.33;;;;;;;15.16;85.98;100632.38;5036936;28;20207;-67
2023/08/27 01:35:08;;;;;;;5.40;5.27;;;;;;;15.15;85.80;100622.66;5035065;28;20195;-67
2023/08/27 01:37:36;;;;;;;5.43;5.33;;;;;;;15.15;85.94;100626.16;5034973;28;20204;-67
2023/08/27 01:40:06;;;;;;;5.93;5.77;;;;;;;15.12;85.75;100634.63;5034969;28;20195;-67
2023/08/27 01:42:35;;;;;;;6.10;5.83;;;;;;;15.11;85.65;100638.31;5036483;28;20188;-67
2023/08/27 01:45:03;;;;;;;6.10;5.57;;;;;;;15.07;85.70;100635.16;5034911;28;20191;-67
2023/08/27 01:47:31;;;;;;;4.90;4.80;;;;;;;15.03;86.03;100633.88;5034720;28;20188;-67
2023/08/27 01:49:57;;;;;;;5.57;5.10;;;;;;;15.02;85.83;100624.09;5034789;28;20241;-67
2023/08/27 01:52:24;;;;;;;6.00;5.10;;;;;;;15.00;85.94;100626.16;5036277;28;20222;-67
2023/08/27 01:54:50;;;;;;;4.90;4.80;;;;;;;15.03;85.64;100625.78;5034680;28;20662;-67
2023/08/27 01:57:16;;;;;;;7.03;5.30;;;;;;;14.95;85.64;100635.78;5036408;28;20196;-67
2023/08/27 01:59:45;;;;;;;5.97;5.60;;;;;;;14.91;85.72;100637.19;5034627;28;20195;-67
2023/08/27 02:02:11;;;;;;;6.33;5.90;;;;;;;14.81;84.59;100636.59;5034733;28;20192;-67
2023/08/27 02:04:37;;;;;;;6.80;6.43;;;;;;;14.67;85.09;100627.47;5034746;28;20682;-67
2023/08/27 02:07:04;;;;;;;4.47;4.47;;;;;;;14.61;85.29;100626.31;5035999;28;20192;-67
2023/08/27 02:09:30;;;;;;;4.97;4.73;;;;;;;14.61;85.42;100629.00;5034321;28;20265;-67
2023/08/27 02:11:57;;;;;;;5.70;5.60;;;;;;;14.61;84.83;100617.41;5035662;28;20184;-67
2023/08/27 02:14:24;;;;;;;6.20;6.00;;;;;;;14.61;85.29;100615.56;5034504;28;20206;-67
2023/08/27 02:16:50;;;;;;;6.00;5.87;;;;;;;14.60;85.54;100611.19;5034326;28;20200;-67
2023/08/27 02:19:17;;;;;;;5.50;5.40;;;;;;;14.54;85.18;100606.53;5034423;28;20211;-67
2023/08/27 02:21:43;;;;;;;4.80;4.70;;;;;;;14.53;85.24;100615.63;5034229;28;20241;-67
2023/08/27 02:24:11;;;;;;;5.10;4.90;;;;;;;14.51;85.55;100619.53;5034188;28;20269;-67
2023/08/27 02:26:38;;;;;;;5.80;5.60;;;;;;;14.47;85.61;100610.13;5034105;28;20722;-67
2023/08/27 02:29:05;;;;;;;5.87;5.70;;;;;;;14.44;85.97;100600.56;5033965;28;20216;-67
2023/08/27 02:31:31;;;;;;;6.10;5.53;;;;;;;14.42;86.25;100610.69;5034029;28;20203;-67
2023/08/27 02:33:59;;;;;;;6.93;6.10;;;;;;;14.40;86.00;100593.03;5035566;28;20218;-67
2023/08/27 02:36:26;;;;;;;5.63;5.17;;;;;;;14.41;85.91;100597.41;5035736;28;20192;-67
2023/08/27 02:38:52;;;;;;;6.47;6.07;;;;;;;14.42;85.87;100593.69;5033806;28;20211;-67
2023/08/27 02:41:18;;;;;;;6.80;6.50;;;;;;;14.45;86.27;100587.94;5033293;28;20200;-67
2023/08/27 02:43:45;;;;;;;6.57;6.37;;;;;;;14.44;85.24;100583.56;5033825;28;20200;-67
2023/08/27 02:46:11;;;;;;;5.77;5.57;;;;;;;14.39;85.50;100596.72;5035007;28;20196;-67
2023/08/27 02:48:38;;;;;;;5.80;5.70;;;;;;;14.33;85.25;100592.88;5034825;28;20215;-68
2023/08/27 02:51:04;;;;;;;5.50;5.30;;;;;;;14.30;85.73;100578.97;5035194;28;20196;-68
2023/08/27 02:53:31;;;;;;;9.07;6.53;;;;;;;14.28;85.60;100578.28;5033594;28;20195;-67
2023/08/27 02:55:57;;;;;;;6.10;5.40;;;;;;;14.26;86.13;100578.47;5034827;28;20659;-67
2023/08/27 02:58:23;;;;;;;6.10;5.57;;;;;;;14.23;85.69;100581.50;5033444;28;20212;-67
2023/08/27 03:00:50;;;;;;;5.53;5.33;;;;;;;14.20;85.95;100579.19;5033415;28;20290;-67
2023/08/27 03:03:16;;;;;;;6.53;5.90;;;;;;;14.20;85.88;100568.44;5033694;28;20561;-67
2023/08/27 03:05:43;;;;;;;6.10;5.70;;;;;;;14.17;86.03;100568.81;5033609;28;20198;-67
2023/08/27 03:08:09;;;;;;;6.53;6.03;;;;;;;14.13;86.06;100559.44;5034453;28;20258;-66
2023/08/27 03:10:36;;;;;;;5.70;5.60;;;;;;;14.06;86.46;100558.44;5033270;28;20253;-66
2023/08/27 03:13:02;;;;;;;4.97;4.67;;;;;;;14.05;86.31;100559.44;5033125;28;20202;-66
2023/08/27 03:15:29;;;;;;;5.30;5.10;;;;;;;14.03;86.71;100570.41;5033153;28;20249;-66
2023/08/27 03:17:55;;;;;;;5.70;5.50;;;;;;;13.98;86.89;100563.88;5033086;28;20223;-67
2023/08/27 03:20:22;;;;;;;5.70;5.53;;;;;;;13.97;86.79;100565.72;5033090;28;20199;-67
2023/08/27 03:22:48;;;;;;;5.90;5.60;;;;;;;13.97;87.03;100571.09;5034306;28;20250;-67
2023/08/27 03:25:15;;;;;;;5.40;5.10;;;;;;;13.95;86.90;100566.94;5034250;28;20188;-66
2023/08/27 03:27:41;;;;;;;6.37;6.10;;;;;;;13.96;86.82;100553.28;5032888;28;20215;-67
2023/08/27 03:30:08;;;;;;;5.80;5.50;;;;;;;13.98;87.08;100561.19;5032761;28;20603;-67
2023/08/27 03:32:35;;;;;;;6.13;5.87;;;;;;;14.00;87.20;100564.56;5034160;28;20172;-67
2023/08/27 03:35:02;;;;;;;6.10;5.90;;;;;;;14.03;87.04;100553.44;5032809;28;20242;-67
2023/08/27 03:37:28;;;;;;;5.67;5.47;;;;;;;14.05;87.26;100567.50;5034001;28;20202;-68
2023/08/27 03:39:55;;;;;;;5.40;5.30;;;;;;;14.05;87.35;100572.91;5033248;28;20198;-67
2023/08/27 03:42:22;;;;;;;7.40;6.63;;;;;;;14.06;87.39;100569.19;5034000;28;20187;-67
2023/08/27 03:44:48;;;;;;;6.97;6.77;;;;;;;14.06;87.32;100564.66;5033894;28;20203;-67
2023/08/27 03:47:17;;;;;;;6.13;5.93;;;;;;;14.08;87.96;100561.81;5032621;28;20203;-67
2023/08/27 03:49:43;;;;;;;5.53;5.03;;;;;;;14.09;87.47;100561.59;5034709;28;20219;-67
2023/08/27 03:52:10;;;;;;;6.10;5.90;;;;;;;14.06;87.17;100570.03;5031693;28;20199;-67
2023/08/27 03:54:36;;;;;;;5.03;4.87;;;;;;;14.05;86.92;100568.34;5033369;28;20382;-67
2023/08/27 03:57:03;;;;;;;5.80;5.23;;;;;;;14.02;87.01;100563.34;5032675;28;20200;-67
2023/08/27 03:59:30;;;;;;;5.97;5.67;;;;;;;13.97;86.98;100548.75;5032324;28;20211;-67
2023/08/27 04:01:56;;;;;;;5.73;5.33;;;;;;;13.93;87.17;100563.56;5032376;28;20203;-67
2023/08/27 04:04:23;;;;;;;5.37;5.27;;;;;;;13.92;86.81;100561.91;5033582;28;20242;-67
2023/08/27 04:06:50;;;;;;;6.40;6.00;;;;;;;13.91;87.40;100561.06;5032520;28;20211;-67
2023/08/27 04:09:16;;;;;;;5.03;4.77;;;;;;;13.92;87.17;100556.53;5032133;28;20220;-67
2023/08/27 04:11:42;;;;;;;5.40;5.30;;;;;;;13.89;87.33;100548.81;5033026;28;20199;-67
2023/08/27 04:14:09;;;;;;;4.93;4.60;;;;;;;13.86;87.25;100551.88;5033292;28;20196;-67
2023/08/27 04:16:35;;;;;;;4.80;4.60;;;;;;;13.87;87.21;100546.31;5032143;28;20257;-67
2023/08/27 04:19:02;;;;;;;5.40;5.30;;;;;;;13.90;87.52;100558.56;5032328;28;20630;-67
2023/08/27 04:21:29;;;;;;;4.87;4.73;;;;;;;13.90;87.37;100558.56;5033310;28;20187;-67
2023/08/27 04:23:55;;;;;;;5.83;5.43;;;;;;;13.91;87.29;100560.22;5032062;28;20196;-67
2023/08/27 04:26:24;;;;;;;4.50;4.40;;;;;;;13.88;87.66;100552.50;5032012;28;20201;-67
2023/08/27 04:28:50;;;;;;;5.27;5.00;;;;;;;13.90;87.37;100563.94;5033099;28;20219;-67
2023/08/27 04:31:17;;;;;;;4.33;4.33;;;;;;;13.91;87.43;100560.22;5031947;28;20204;-67
2023/08/27 04:33:43;;;;;;;5.20;5.10;;;;;;;13.90;87.62;100559.41;5033202;28;20191;-67
2023/08/27 04:36:10;;;;;;;5.17;5.03;;;;;;;13.90;87.25;100558.56;5031917;28;20200;-67
2023/08/27 04:38:36;;;;;;;5.27;5.07;;;;;;;13.89;87.58;100565.78;5033341;28;20207;-67
2023/08/27 04:41:02;;;;;;;5.50;5.40;;;;;;;13.84;87.47;100551.19;5031889;28;20192;-67
2023/08/27 04:43:29;;;;;;;6.33;5.80;;;;;;;13.83;87.73;100550.38;5033108;28;20187;-67
2023/08/27 04:45:57;;;;;;;5.23;4.97;;;;;;;13.87;87.50;100550.84;5031828;28;20594;-67
2023/08/27 04:48:23;;;;;;;5.27;5.10;;;;;;;13.86;87.52;100554.53;5031682;28;20247;-67
2023/08/27 04:50:50;;;;;;;5.73;5.43;;;;;;;13.90;87.41;100555.88;5031779;28;20203;-67
2023/08/27 04:53:16;;;;;;;5.20;5.10;;;;;;;13.93;87.92;100558.19;5033008;28;20192;-67
2023/08/27 04:55:43;;;;;;;5.17;5.07;;;;;;;13.94;87.87;100552.66;5033010;28;20188;-67
2023/08/27 04:58:10;;;;;;;5.10;4.87;;;;;;;13.96;87.92;100555.16;5031624;28;20235;-67
2023/08/27 05:00:37;;;;;;;6.50;5.90;;;;;;;13.95;87.84;100550.81;5031707;28;20278;-67
2023/08/27 05:03:03;;;;;;;5.43;5.10;;;;;;;13.97;87.72;100560.34;5031781;28;20246;-67
2023/08/27 05:05:30;;;;;;;6.17;5.63;;;;;;;14.01;87.89;100568.88;5035858;28;20188;-67
2023/08/27 05:07:57;;;;;;;6.93;6.63;;;;;;;14.04;88.04;100553.28;5035725;28;20739;-67
2023/08/27 05:10:25;;;;;;;5.43;5.13;;;;;;;14.08;88.17;100557.28;5035460;28;20254;-67
2023/08/27 05:12:52;;;;;;;5.83;5.13;;;;;;;14.11;88.79;100558.75;5037187;28;20200;-67
2023/08/27 05:15:20;;;;;;;5.97;5.67;;;;;;;14.18;87.77;100554.31;5035498;28;20273;-67
2023/08/27 05:17:50;;;;;;;5.40;5.30;;;;;;;14.17;88.08;100555.38;5035181;28;20703;-67
2023/08/27 05:20:17;;;;;;;4.80;4.50;;;;;;;14.19;88.05;100556.00;5035357;28;20210;-67
2023/08/27 05:22:43;;;;;;;6.03;5.47;;;;;;;14.25;88.26;100557.16;5035561;28;20611;-67
2023/08/27 05:25:10;;;;;;;5.63;5.43;;;;;;;14.25;88.02;100568.75;5035225;28;20656;-67
2023/08/27 05:27:43;;;;;;;6.00;5.70;;;;;;;14.24;88.48;100559.00;5035160;28;20202;-68
2023/08/27 05:30:12;;;;;;;6.23;5.83;;;;;;;14.28;88.04;100554.94;5036431;28;20679;-67
2023/08/27 05:32:40;;;;;;;5.27;5.07;;;;;;;14.37;87.62;100559.28;5036720;28;20242;-67
2023/08/27 05:35:08;;;;;;;5.83;5.53;;;;;;;14.72;85.56;100570.41;5035096;28;20257;-67
2023/08/27 05:37:35;;;;;;;6.07;5.63;;;;;;;14.62;85.97;100571.50;5036236;28;20246;-67
2023/08/27 05:40:06;;;;;;;5.37;4.90;;;;;;;14.66;86.02;100580.03;5034903;28;20238;-67
2023/08/27 05:42:32;;;;;;;5.33;5.00;;;;;;;14.69;86.01;100584.22;5035017;28;20211;-67
2023/08/27 05:44:59;;;;;;;5.77;5.67;;;;;;;14.66;86.11;100584.59;5034899;28;20203;-67
2023/08/27 05:47:26;;;;;;;9.93;6.00;;;;;;;14.60;86.26;100575.38;5035116;28;20195;-68
2023/08/27 05:49:53;;;;;;;5.40;5.10;;;;;;;14.60;86.40;100581.59;5036540;28;20691;-67
2023/08/27 05:52:21;;;;;;;5.13;5.03;;;;;;;14.61;86.20;100585.97;5035049;28;20219;-67
2023/08/27 05:54:47;;;;;;;4.80;4.77;;;;;;;14.58;86.22;100580.94;5034773;28;20557;-67
2023/08/27 05:57:14;;;;;;;5.40;5.30;;;;;;;14.57;86.02;100584.66;5034946;28;20280;-67
2023/08/27 05:59:41;;;;;;;4.87;4.73;;;;;;;14.57;86.26;100594.56;5034580;28;20210;-67
2023/08/27 06:02:13;;;;;;;5.33;5.03;;;;;;;14.62;86.31;100594.88;5035428;28;20192;-67
2023/08/27 06:04:40;;;;;;;5.67;5.17;;;;;;;14.61;86.21;100585.97;5034778;28;20202;-67
2023/08/27 06:07:08;;;;;;;5.60;5.03;;;;;;;14.64;86.21;100590.97;5034530;28;20203;-67
2023/08/27 06:09:34;;;;;;;12.67;5.07;;;;;;;14.60;86.39;100592.34;5034534;28;20228;-67
2023/08/27 06:12:02;;;;;;;5.20;4.93;;;;;;;14.62;86.38;100592.19;5034448;28;20188;-67
2023/08/27 06:14:28;;;;;;;5.90;5.43;;;;;;;14.71;86.17;100601.88;5034276;28;20206;-67
2023/08/27 06:16:55;;;;;;;5.23;5.10;;;;;;;14.81;86.44;100598.94;5033636;28;20196;-67
2023/08/27 06:19:21;;;;;;;6.27;5.73;;;;;;;14.81;86.43;100598.94;5034210;28;20215;-67
2023/08/27 06:21:49;;;;;;;7.33;6.80;;;;;;;14.88;86.65;100594.47;5036010;28;20187;-67
2023/08/27 06:24:15;;;;;;;7.53;6.87;;;;;;;14.89;86.53;100588.94;5035687;28;20246;-67
2023/08/27 06:26:42;;;;;;;6.40;6.30;;;;;;;14.93;86.40;100587.53;5034184;28;20176;-68
2023/08/27 06:29:08;;;;;;;5.80;5.60;;;;;;;14.98;86.67;100590.50;5033953;28;20216;-68
2023/08/27 06:31:35;;;;;;;6.00;5.80;;;;;;;15.00;86.84;100579.56;5034127;28;20250;-67
2023/08/27 06:34:02;;;;;;;6.10;5.70;;;;;;;15.03;86.44;100596.16;5034851;28;20299;-67
2023/08/27 06:36:31;;;;;;;5.00;4.90;;;;;;;15.03;85.76;100606.09;5034546;28;20606;-67
2023/08/27 06:38:58;;;;;;;11.07;4.83;;;;;;;15.01;86.34;100605.47;5033852;28;20216;-67
2023/08/27 06:41:25;;;;;;;4.97;4.87;;;;;;;15.00;85.98;100601.94;5033931;28;20282;-68
2023/08/27 06:43:58;;;;;;;4.90;4.73;;;;;;;15.12;85.61;100594.22;5034129;28;20698;-68
2023/08/27 06:46:24;;;;;;;5.43;5.03;;;;;;;15.02;85.98;100591.00;5033807;28;20192;-68
2023/08/27 06:48:51;;;;;;;4.53;4.53;;;;;;;15.12;85.11;100591.53;5033603;28;20307;-68
2023/08/27 06:51:18;;;;;;;4.57;4.53;;;;;;;15.10;84.32;100598.97;5035204;28;20186;-68
2023/08/27 06:53:44;;;;;;;4.13;4.03;;;;;;;15.03;84.72;100598.03;5034908;28;20682;-68
2023/08/27 06:56:11;;;;;;;5.97;5.47;;;;;;;15.08;85.10;100619.84;5035136;28;20249;-68
2023/08/27 06:58:37;;;;;;;4.50;4.40;;;;;;;15.11;84.86;100616.78;5033467;28;20603;-68
2023/08/27 07:01:08;;;;;;;3.67;3.67;;;;;;;15.13;84.64;100608.53;5034784;28;20188;-68
2023/08/27 07:03:34;;;;;;;3.60;3.60;;;;;;;15.00;84.46;100620.78;5033479;28;20192;-68
2023/08/27 07:06:01;;;;;;;2.87;2.83;;;;;;;14.94;85.13;100607.19;5033654;28;20192;-68
2023/08/27 07:08:27;;;;;;;2.33;2.33;;;;;;;14.95;85.97;100619.63;5033512;28;20311;-68
2023/08/27 07:10:54;;;;;;;3.80;3.67;;;;;;;14.95;85.80;100620.47;5033530;28;20314;-68
2023/08/27 07:13:21;;;;;;;3.33;2.90;;;;;;;15.01;86.29;100624.31;5033045;28;20199;-68
2023/08/27 07:15:47;;;;;;;3.20;3.10;;;;;;;15.05;86.07;100625.63;5033230;28;20215;-68
2023/08/27 07:18:15;;;;;;;4.07;3.20;;;;;;;15.13;85.56;100620.16;5034318;28;20575;-68
2023/08/27 07:20:41;;;;;;;3.77;3.67;;;;;;;15.13;86.36;100612.06;5034369;28;20234;-68
2023/08/27 07:23:08;;;;;;;3.03;3.03;;;;;;;15.18;85.74;100614.22;5034364;28;20187;-68
2023/08/27 07:25:34;;;;;;;3.20;3.10;;;;;;;15.30;84.77;100624.34;5033018;28;20614;-68
2023/08/27 07:28:01;;;;;;;3.50;3.20;;;;;;;15.26;85.50;100622.19;5032757;28;20211;-68
2023/08/27 07:30:28;;;;;;;3.20;3.20;;;;;;;15.26;85.39;100616.81;5032858;28;20211;-68
2023/08/27 07:32:54;;;;;;;3.17;3.17;;;;;;;15.31;85.58;100619.78;5032915;28;20196;-68
2023/08/27 07:35:21;;;;;;;3.00;3.00;;;;;;;15.38;85.45;100609.94;5034123;28;20187;-68
2023/08/27 07:37:49;;;;;;;3.73;3.60;;;;;;;15.39;84.36;100607.06;5034305;28;20208;-68
2023/08/27 07:40:17;;;;;;;2.83;2.83;;;;;;;15.38;84.47;100605.41;5034289;28;20203;-68
2023/08/27 07:42:43;;;;;;;2.80;2.60;;;;;;;15.39;84.38;100612.47;5032722;28;20195;-68
2023/08/27 07:45:10;;;;;;;3.10;3.00;;;;;;;15.43;84.39;100612.91;5033866;28;20588;-68
2023/08/27 07:47:37;;;;;;;2.73;2.63;;;;;;;15.47;84.22;100608.84;5032514;28;20676;-68
2023/08/27 07:50:06;;;;;;;3.50;3.50;;;;;;;15.48;84.17;100605.13;5032502;28;20679;-68
2023/08/27 07:52:32;;;;;;;3.70;3.40;;;;;;;15.64;83.17;100601.41;5032479;28;20192;-68
2023/08/27 07:54:59;;;;;;;3.77;3.67;;;;;;;15.76;82.81;100608.00;5032527;28;20192;-68
2023/08/27 07:57:25;;;;;;;3.50;3.40;;;;;;;15.64;83.12;100615.75;5032307;28;20196;-68
2023/08/27 07:59:54;;;;;;;3.93;3.57;;;;;;;15.70;83.11;100608.78;5032647;28;20667;-68
2023/08/27 08:02:20;;;;;;;5.47;5.27;;;;;;;15.71;83.04;100600.47;5033595;28;20199;-68
2023/08/27 08:04:46;;;;;;;3.30;3.30;;;;;;;15.65;83.51;100595.00;5032339;28;20310;-68
2023/08/27 08:07:13;;;;;;;4.30;4.30;;;;;;;15.70;83.52;100611.47;5033813;28;20554;-68
2023/08/27 08:09:39;;;;;;;5.77;5.57;;;;;;;15.66;83.95;100602.91;5033445;28;20266;-72
2023/08/27 08:12:07;;;;;;;4.87;4.77;;;;;;;15.66;84.23;100596.69;5033921;28;20616;-70
2023/08/27 08:14:34;;;;;;;7.20;7.00;;;;;;;15.73;84.77;100606.53;5032553;28;20234;-70
2023/08/27 08:17:00;;;;;;;7.70;7.37;;;;;;;15.82;84.31;100602.72;5033421;28;20199;-71
2023/08/27 08:19:27;;;;;;;10.43;7.50;;;;;;;15.86;84.25;100609.41;5033319;28;20269;-71
2023/08/27 08:21:53;;;;;;;6.67;6.47;;;;;;;15.92;84.40;100621.25;5033892;28;20195;-71
2023/08/27 08:24:20;;;;;;;7.57;6.70;;;;;;;15.96;84.39;100611.78;5033349;28;20188;-71
2023/08/27 08:26:49;;;;;;;7.53;7.10;;;;;;;16.05;84.58;100620.59;5033545;28;20203;-71
2023/08/27 08:29:15;;;;;;;6.77;6.37;;;;;;;16.11;84.08;100628.78;5033412;28;20207;-70
2023/08/27 08:31:42;;;;;;;6.73;6.57;;;;;;;16.19;83.59;100631.34;5033505;28;20191;-71
2023/08/27 08:34:09;;;;;;;7.53;7.07;;;;;;;16.31;83.70;100634.38;5033237;28;20609;-71
2023/08/27 08:36:35;;;;;;;7.47;6.97;;;;;;;16.46;82.44;100633.28;5033689;28;20176;-71
2023/08/27 08:39:02;;;;;;;6.83;6.63;;;;;;;16.56;81.47;100610.56;5032859;28;20212;-71
2023/08/27 08:41:28;;;;;;;6.63;6.20;;;;;;;16.63;81.72;100616.91;5033086;28;20188;-71
2023/08/27 08:44:03;;;;;;;7.07;6.87;;;;;;;16.69;81.78;100619.66;5033605;28;20258;-71
2023/08/27 08:46:34;;;;;;;7.07;6.50;;;;;;;16.76;80.51;100617.03;5033396;28;20179;-71
2023/08/27 08:49:02;;;;;;;9.63;8.70;;;;;;;16.83;78.16;100618.75;5033193;28;20243;-71
2023/08/27 08:51:30;;;;;;;7.43;6.80;;;;;;;16.76;79.43;100617.03;5033226;28;20200;-72
2023/08/27 08:54:01;;;;;;;7.60;7.00;;;;;;;16.78;77.63;100617.66;5033018;28;20215;-73
2023/08/27 08:56:35;;;;;;;7.73;7.17;;;;;;;16.69;76.00;100622.34;5033580;28;20172;-72
2023/08/27 08:59:03;;;;;;;6.67;6.00;;;;;;;16.60;76.81;100611.88;5033168;28;20687;-71
2023/08/27 09:01:31;;;;;;;6.40;6.00;;;;;;;16.62;77.58;100610.66;5033232;28;20597;-71
2023/08/27 09:03:59;;;;;;;5.77;5.60;;;;;;;16.68;76.72;100607.16;5033461;28;20648;-72
2023/08/27 09:06:26;;;;;;;6.10;5.77;;;;;;;16.67;77.73;100610.91;5032877;28;20192;-72
2023/08/27 09:08:54;;;;;;;5.70;5.50;;;;;;;16.71;78.00;100608.66;5032785;28;20203;-71
2023/08/27 09:11:21;;;;;;;5.50;5.40;;;;;;;16.78;79.06;100614.94;5033108;28;20200;-72
2023/08/27 09:13:48;;;;;;;6.60;6.30;;;;;;;16.77;78.24;100607.88;5032846;28;20200;-70
2023/08/27 09:16:14;;;;;;;7.27;7.03;;;;;;;16.78;78.91;100614.94;5032798;28;20253;-68
2023/08/27 09:18:41;;;;;;;6.63;6.23;;;;;;;16.84;78.47;100624.97;5032719;28;20302;-67
2023/08/27 09:21:07;;;;;;;6.00;5.90;;;;;;;16.94;78.80;100619.22;5015318;28;20266;-67
2023/08/27 09:23:37;;;;;;;6.97;6.57;;;;;;;16.95;78.28;100618.19;5033044;28;20184;-66
2023/08/27 09:26:05;;;;;;;11.50;7.87;;;;;;;16.97;76.18;100622.41;5033583;28;20554;-68
2023/08/27 09:28:34;;;;;;;11.00;6.20;;;;;;;17.00;76.95;100621.16;5032920;28;20212;-71
2023/08/27 09:31:01;;;;;;;7.53;7.07;;;;;;;17.00;75.96;100623.84;5033102;28;20204;-72
2023/08/27 09:33:40;;;;;;;7.23;6.87;;;;;;;16.94;76.21;100620.06;5032946;28;20184;-72
2023/08/27 09:36:08;;;;;;;7.40;7.10;;;;;;;16.93;75.52;100618.38;5033036;28;20188;-71
2023/08/27 09:38:34;;;;;;;8.07;7.40;;;;;;;17.00;75.92;100611.19;5032552;28;20204;-71
2023/08/27 09:41:15;;;;;;;8.33;7.83;;;;;;;17.14;76.26;100607.53;5033016;28;20188;-71
2023/08/27 09:43:52;;;;;;;6.80;6.60;;;;;;;17.12;74.18;100604.22;5032826;28;20180;-71
2023/08/27 09:46:20;;;;;;;7.50;7.33;;;;;;;17.11;73.66;100591.72;5033260;28;20184;-70
2023/08/27 09:49:00;;;;;;;8.17;7.80;;;;;;;17.15;74.58;100598.41;5033268;28;20208;-67
2023/08/27 09:51:31;;;;;;;7.90;7.23;;;;;;;17.18;75.10;100594.50;5035143;28;20204;-67
2023/08/27 09:53:57;;;;;;;6.93;6.73;;;;;;;17.30;75.13;100582.09;5036031;28;20194;-67
2023/08/27 09:56:25;;;;;;;8.10;7.80;;;;;;;17.30;75.23;100580.22;5036026;28;20574;-70
2023/08/27 09:58:54;;;;;;;7.80;7.40;;;;;;;17.29;74.85;100575.03;5036116;28;20699;-67
2023/08/27 10:01:33;;;;;;;8.03;7.60;;;;;;;17.36;75.27;100571.31;5036175;28;20578;-67
2023/08/27 10:04:07;;;;;;;7.67;7.17;;;;;;;17.56;75.43;100573.31;5036172;28;20168;-71
2023/08/27 10:06:35;;;;;;;7.20;6.70;;;;;;;17.70;74.58;100565.06;5036104;28;20168;-71
2023/08/27 10:09:03;;;;;;;8.20;7.67;;;;;;;17.92;74.06;100564.94;5035751;28;20214;-71
2023/08/27 10:11:32;;;;;;;7.90;7.53;;;;;;;18.09;71.47;100560.81;5035893;28;20208;-70
2023/08/27 10:14:00;;;;;;;8.27;7.23;;;;;;;18.19;71.58;100561.28;5035709;28;20199;-71
2023/08/27 10:16:30;;;;;;;14.07;8.50;;;;;;;18.29;70.66;100550.88;5035893;28;20242;-71
2023/08/27 10:18:57;;;;;;;8.10;7.50;;;;;;;18.25;69.14;100555.03;5036075;28;20219;-71
2023/08/27 10:21:24;;;;;;;6.70;6.33;;;;;;;18.23;70.61;100547.13;5035602;28;20192;-72
2023/08/27 10:23:52;;;;;;;6.47;6.07;;;;;;;18.29;69.75;100550.06;5035435;28;20191;-71
2023/08/27 10:26:19;;;;;;;5.70;5.50;;;;;;;18.19;69.66;100559.41;5035439;28;20188;-71
2023/08/27 10:28:47;;;;;;;5.93;5.57;;;;;;;18.13;69.37;100552.09;5035348;28;20281;-71
2023/08/27 10:31:14;;;;;;;5.23;5.13;;;;;;;18.10;70.04;100549.81;5035818;28;20651;-71
2023/08/27 10:33:40;;;;;;;5.90;5.70;;;;;;;18.20;69.76;100542.09;5035863;28;20168;-72
2023/08/27 10:36:28;;;;;;;5.87;5.77;;;;;;;18.08;71.28;100543.75;5035561;28;20192;-72
2023/08/27 10:38:56;;;;;;;5.97;5.73;;;;;;;18.08;70.77;100541.06;5035249;28;20212;-71
2023/08/27 10:41:25;;;;;;;6.40;6.03;;;;;;;18.11;69.96;100537.97;5035619;28;20180;-72
2023/08/27 10:43:52;;;;;;;6.87;6.37;;;;;;;18.14;70.05;100548.34;5035112;28;20196;-72
2023/08/27 10:46:20;;;;;;;6.10;5.80;;;;;;;18.06;69.19;100545.00;5035310;28;20725;-72
2023/08/27 10:48:49;;;;;;;5.57;5.03;;;;;;;18.07;70.19;100544.81;5034924;28;20273;-72
2023/08/27 10:51:17;;;;;;;4.40;4.20;;;;;;;17.95;67.85;100542.91;5034847;28;20219;-72
2023/08/27 10:53:50;;;;;;;3.73;3.63;;;;;;;17.99;68.18;100544.16;5034879;28;20184;-72
2023/08/27 10:56:36;;;;;;;4.10;4.00;;;;;;;18.12;69.71;100539.59;5035444;28;20168;-71
2023/08/27 10:59:11;;;;;;;4.03;3.93;;;;;;;18.21;70.59;100537.53;5034723;28;20722;-71
2023/08/27 11:01:58;;;;;;;4.43;3.50;;;;;;;18.43;69.83;100540.91;5034672;28;20176;-72
2023/08/27 11:04:39;;;;;;;3.33;3.07;;;;;;;18.41;68.02;100532.16;5034956;28;20207;-73
2023/08/27 11:07:11;;;;;;;2.93;2.73;;;;;;;18.46;68.00;100527.78;5034843;28;20234;-71
2023/08/27 11:09:48;;;;;;;3.33;3.27;;;;;;;18.54;67.99;100535.72;5035108;28;20208;-71
2023/08/27 11:12:35;;;;;;;1.63;1.53;;;;;;;18.74;67.34;100524.91;5034711;28;20206;-71
2023/08/27 11:15:15;;;;;;;2.00;1.60;;;;;;;18.97;65.61;100519.00;5034837;28;20168;-71
2023/08/27 11:17:42;;;;;;;1.87;1.77;;;;;;;19.10;64.64;100517.13;5034947;28;20215;-71
2023/08/27 11:20:26;;;;;;;2.53;1.97;;;;;;;19.13;63.15;100518.59;5034470;28;20184;-71
2023/08/27 11:23:00;;;;;;;1.97;1.80;;;;;;;19.21;63.90;100518.34;5034870;28;20599;-72
2023/08/27 11:25:28;;;;;;;2.27;2.27;;;;;;;19.15;63.22;100516.47;5034611;28;20590;-71
2023/08/27 11:28:02;;;;;;;4.87;2.90;;;;;;;19.18;63.98;100521.47;5034234;28;20283;-71